Aeroporto :
LOGIN :

Iscrizione | Disclaimer

   EN    FR    IT 

 










Sommario :    VFR   VFR Marginale   IFR   IFR Intensivo   IFR Molto Intensivo
Visibilità : 
Base nubi : 
>= 8 km
>= 3000ft
5 / 8 km
1000 / 3000 ft
1500m / 5 km
500 / 1000 ft
800 / 1500m
200 / 500 ft
< 800m
< 200 ft
Simboli :   Temporali  Nebbia  Neve Forte  Precipitazioni Forti  Vento > 20 kt
SIGMETs :   Varie  Temporali  Ghiacco  Turbolenza  Onda orograficha  Ceneri Vulcaniche







- Altitudine del aeroporto : 120 ft
- Codice IATA : MME
- Carte del aeroporto


EGNV - Durham Tees valley

ULTIMO METAR :
  • 191620Z 03005KT CAVOK 17/09 Q1031

METARs OBSOLETI :
  • 191550Z 04007KT CAVOK 17/09 Q1031
  • 191520Z 04007KT CAVOK 17/08 Q1031
  • 191450Z 04006KT 020V080 CAVOK 17/08 Q1031
  • 191420Z 04007KT 350V090 CAVOK 17/08 Q1031
  • 191350Z 05008KT CAVOK 17/09 Q1031
  • 191320Z 06008KT 020V090 9000 NSC 17/09 Q1032

TAF TAF EGNV
Valido dal 19 a 15 ore il 19 a 21 ore UTC


191401Z 1915/1921 06005KT 9999 FEW030
ATIS : +44 9012 018 111
Nessun NOTAM noto per questo aeroporto.



MetMap, La meteo Aeronautica in un colpo d'occhio ! - Copyright ORBIFLY Dicembre 2007 - Disclaimer

ORBIFLY MET'MAP TEAM :

Programmazione e sviluppo : Alexandra Zaïnal
Concezione e sviluppo : Baudouin d'Aumeries
Co-Programmazione e sviluppo : Marc-Olivier Méhu
Supporto tecnico e logistico : Manuel Goepfert
Aiuto per la traduzione : Arnaldo La Scala

Contatto : metmap@orbifly.com




FONTI E CREDITI :

   NOAA